Time;durP1;ratioP1;P1;durP2;ratioP2;P2;SDS_P1;SDS_P2;PMS_P1;PMS_P2;Temp;Humidity;BMP_temperature;BMP_pressure;BME280_temperature;BME280_humidity;BME280_pressure;Samples;Min_cycle;Max_cycle;Signal;HPM_P1;HPM_P2
2023/03/11 00:00:59;;;;;;;7.10;1.77;;;1.70;83.20;;;;;;5083386;28;20058;-79
2023/03/11 00:03:27;;;;;;;5.97;1.10;;;1.70;83.20;;;;;;5088151;28;20474;-79
2023/03/11 00:05:54;;;;;;;4.30;1.20;;;2.00;83.30;;;;;;5107527;28;20023;-81
2023/03/11 00:08:23;;;;;;;6.87;1.57;;;1.70;83.10;;;;;;5091796;28;20031;-80
2023/03/11 00:10:53;;;;;;;8.17;1.63;;;1.70;83.10;;;;;;5086383;28;20078;-80
2023/03/11 00:13:20;;;;;;;8.90;1.33;;;1.70;83.10;;;;;;5104766;28;20027;-80
2023/03/11 00:15:47;;;;;;;7.07;1.77;;;1.70;83.20;;;;;;5105911;28;20059;-79
2023/03/11 00:18:14;;;;;;;6.73;1.50;;;1.60;83.10;;;;;;5089305;28;20415;-80
2023/03/11 00:20:42;;;;;;;5.77;1.30;;;1.60;83.50;;;;;;5105292;28;20085;-79
2023/03/11 00:23:08;;;;;;;6.57;1.67;;;1.60;83.10;;;;;;5075892;28;20062;-79
2023/03/11 00:25:36;;;;;;;6.27;1.30;;;1.60;83.60;;;;;;5086616;28;20043;-79
2023/03/11 00:28:02;;;;;;;8.93;1.73;;;1.70;83.30;;;;;;5107471;28;20032;-79
2023/03/11 00:30:28;;;;;;;3.30;1.50;;;1.60;83.30;;;;;;5108722;28;20039;-80
2023/03/11 00:32:56;;;;;;;6.70;1.33;;;1.60;83.30;;;;;;5108969;28;20111;-80
2023/03/11 00:35:25;;;;;;;5.73;1.97;;;1.60;83.30;;;;;;5102549;28;20092;-81
2023/03/11 00:37:57;;;;;;;8.37;1.53;;;1.60;83.20;;;;;;5110413;28;20043;-82
2023/03/11 00:40:24;;;;;;;8.20;2.57;;;1.60;83.10;;;;;;5111465;28;20074;-81
2023/03/11 00:42:50;;;;;;;5.27;1.77;;;1.60;82.90;;;;;;5091854;28;20046;-81
2023/03/11 00:45:16;;;;;;;5.23;1.73;;;2.10;83.20;;;;;;5086200;28;20039;-81
2023/03/11 00:47:41;;;;;;;6.17;1.60;;;1.60;82.70;;;;;;5091687;28;20040;-81
2023/03/11 00:50:11;;;;;;;5.40;1.10;;;1.60;82.70;;;;;;5111863;28;20092;-81
2023/03/11 00:52:37;;;;;;;7.03;1.30;;;1.60;82.70;;;;;;5069910;28;20078;-81
2023/03/11 00:55:04;;;;;;;7.97;1.87;;;1.60;82.60;;;;;;5054735;27;20041;-81
2023/03/11 00:57:30;;;;;;;5.00;1.50;;;1.60;82.40;;;;;;5099338;27;20039;-81
2023/03/11 00:59:56;;;;;;;5.87;1.37;;;1.60;82.30;;;;;;5094559;27;20099;-81
2023/03/11 01:02:21;;;;;;;4.43;1.90;;;1.60;82.10;;;;;;5077752;27;20039;-81
2023/03/11 01:04:51;;;;;;;12.17;2.90;;;1.60;82.00;;;;;;5072410;27;20160;-81
2023/03/11 01:07:17;;;;;;;9.80;1.93;;;1.60;81.80;;;;;;5059678;28;20047;-81
2023/03/11 01:09:43;;;;;;;5.33;1.40;;;2.10;82.30;;;;;;5111502;28;20028;-81
2023/03/11 01:12:08;;;;;;;3.60;1.70;;;1.60;81.40;;;;;;5077848;28;20040;-81
2023/03/11 01:14:34;;;;;;;5.23;0.93;;;1.70;81.40;;;;;;5070167;27;20067;-81
2023/03/11 01:17:00;;;;;;;7.17;1.00;;;1.60;81.30;;;;;;5062695;28;20040;-81
2023/03/11 01:19:25;;;;;;;6.30;1.07;;;2.30;81.60;;;;;;5090942;27;20049;-80
2023/03/11 01:21:51;;;;;;;4.67;0.97;;;1.60;81.10;;;;;;5074011;27;20050;-82
2023/03/11 01:24:17;;;;;;;4.20;1.17;;;1.60;80.90;;;;;;5080628;28;20185;-81
2023/03/11 01:26:43;;;;;;;5.13;0.93;;;1.60;80.80;;;;;;5094233;27;20123;-81
2023/03/11 01:29:09;;;;;;;3.20;0.90;;;1.60;80.70;;;;;;5082462;27;20389;-81
2023/03/11 01:31:35;;;;;;;6.67;0.93;;;1.60;80.70;;;;;;5067369;27;20130;-81
2023/03/11 01:34:00;;;;;;;3.93;1.07;;;1.60;80.70;;;;;;5103247;27;20459;-80
2023/03/11 01:36:26;;;;;;;4.43;1.20;;;1.60;80.60;;;;;;5089327;27;20042;-80
2023/03/11 01:38:52;;;;;;;5.23;0.83;;;1.60;80.60;;;;;;5104538;28;20069;-80
2023/03/11 01:41:18;;;;;;;5.27;0.80;;;1.60;80.60;;;;;;5080214;28;20028;-81
2023/03/11 01:43:43;;;;;;;2.53;0.80;;;1.70;80.70;;;;;;5093275;28;20113;-81
2023/03/11 01:46:18;;;;;;;3.63;0.93;;;1.60;80.60;;;;;;5090746;27;20035;-81
2023/03/11 01:48:52;;;;;;;4.10;0.90;;;1.60;80.60;;;;;;5083564;28;20031;-82
2023/03/11 01:51:21;;;;;;;;;;;1.70;80.60;;;;;;5094537;27;20031;-81
2023/03/11 01:53:47;;;;;;;6.70;1.73;;;1.60;80.40;;;;;;5090231;28;19968;-81
2023/03/11 01:56:13;;;;;;;3.17;0.90;;;1.60;80.70;;;;;;5082599;27;20067;-81
2023/03/11 01:58:43;;;;;;;2.67;1.00;;;1.70;80.70;;;;;;5069522;28;20078;-81
2023/03/11 02:01:10;;;;;;;4.77;0.80;;;1.70;80.70;;;;;;5084376;27;20067;-82
2023/03/11 02:03:38;;;;;;;4.60;0.97;;;1.70;80.70;;;;;;5090922;27;20398;-81
2023/03/11 02:06:15;;;;;;;1.83;0.73;;;1.70;80.60;;;;;;5099118;28;20027;-80
2023/03/11 02:08:42;;;;;;;3.93;0.90;;;1.70;80.60;;;;;;5096171;27;20509;-82
2023/03/11 02:11:14;;;;;;;2.43;0.70;;;1.80;80.70;;;;;;5070075;28;20071;-80
2023/03/11 02:13:41;;;;;;;2.57;1.10;;;1.80;80.60;;;;;;5111372;27;20050;-80
2023/03/11 02:16:07;;;;;;;1.60;0.83;;;1.70;80.60;;;;;;5076745;28;20433;-80
2023/03/11 02:18:33;;;;;;;4.50;1.33;;;1.80;80.50;;;;;;5068318;27;20056;-80
2023/03/11 02:21:21;;;;;;;3.80;0.73;;;2.10;80.60;;;;;;5079225;28;20074;-81
2023/03/11 02:24:11;;;;;;;3.80;0.90;;;1.80;80.30;;;;;;5087182;28;20052;-82
2023/03/11 02:26:47;;;;;;;3.07;0.80;;;1.80;80.20;;;;;;5079241;28;20039;-82
2023/03/11 02:29:13;;;;;;;4.27;1.10;;;1.70;80.10;;;;;;5087441;28;20081;-81
2023/03/11 02:31:41;;;;;;;2.27;0.80;;;1.80;80.00;;;;;;5059144;28;20033;-82
2023/03/11 02:34:14;;;;;;;4.17;0.80;;;2.30;80.20;;;;;;5089066;28;20072;-82
2023/03/11 02:36:41;;;;;;;1.90;0.70;;;1.90;79.90;;;;;;5068875;28;20413;-81
2023/03/11 02:39:08;;;;;;;2.50;1.00;;;1.80;79.80;;;;;;5089394;27;20035;-81
2023/03/11 02:41:37;;;;;;;3.73;0.90;;;1.70;79.80;;;;;;5093288;27;20079;-81
2023/03/11 02:44:09;;;;;;;4.53;1.03;;;2.20;80.20;;;;;;5085326;27;20036;-81
2023/03/11 02:46:37;;;;;;;3.87;0.80;;;2.10;80.20;;;;;;5099175;27;20075;-81
2023/03/11 02:49:03;;;;;;;2.67;0.97;;;1.80;80.10;;;;;;5059786;28;20085;-81
2023/03/11 02:51:29;;;;;;;3.80;1.33;;;2.00;80.20;;;;;;5073142;27;20098;-81
2023/03/11 02:53:58;;;;;;;2.07;0.80;;;2.10;80.30;;;;;;5086819;27;20509;-81
2023/03/11 02:56:24;;;;;;;3.03;1.13;;;1.80;80.00;;;;;;5100084;28;20035;-81
2023/03/11 02:58:50;;;;;;;4.00;0.83;;;1.80;79.90;;;;;;5096183;28;20044;-81
2023/03/11 03:01:16;;;;;;;4.27;1.10;;;1.80;79.80;;;;;;5104358;28;20402;-81
2023/03/11 03:03:41;;;;;;;2.97;1.23;;;1.80;79.40;;;;;;5061942;28;20085;-81
2023/03/11 03:06:07;;;;;;;4.33;1.40;;;2.00;79.50;;;;;;5045083;28;20040;-81
2023/03/11 03:08:33;;;;;;;4.13;0.97;;;1.80;79.40;;;;;;5041781;28;20051;-81
2023/03/11 03:10:59;;;;;;;2.63;1.10;;;2.40;79.70;;;;;;5060979;28;20051;-81
2023/03/11 03:13:26;;;;;;;3.03;1.00;;;1.80;79.20;;;;;;5061870;28;20402;-81
2023/03/11 03:15:52;;;;;;;3.60;0.87;;;1.90;79.20;;;;;;5078311;28;20043;-81
2023/03/11 03:18:17;;;;;;;2.17;1.00;;;2.00;79.30;;;;;;5061927;28;20032;-80
2023/03/11 03:20:43;;;;;;;1.50;0.70;;;1.70;79.00;;;;;;5058310;28;20105;-80
2023/03/11 03:23:09;;;;;;;3.70;0.73;;;1.80;79.00;;;;;;5083840;28;20142;-80
2023/03/11 03:25:35;;;;;;;1.70;0.87;;;2.30;79.30;;;;;;5078449;28;20123;-81
2023/03/11 03:28:00;;;;;;;3.77;1.10;;;1.80;78.90;;;;;;5078736;28;20192;-81
2023/03/11 03:30:28;;;;;;;4.27;1.00;;;1.80;78.90;;;;;;5078696;28;20040;-81
2023/03/11 03:32:54;;;;;;;4.70;1.00;;;1.80;79.00;;;;;;5077856;28;20087;-81
2023/03/11 03:35:20;;;;;;;4.40;1.10;;;2.20;79.30;;;;;;5078554;28;20450;-80
2023/03/11 03:37:46;;;;;;;2.87;1.03;;;2.10;79.30;;;;;;5061313;28;20103;-80
2023/03/11 03:40:12;;;;;;;2.73;0.67;;;1.80;79.10;;;;;;5077346;28;20170;-80
2023/03/11 03:42:38;;;;;;;2.47;0.93;;;1.70;79.10;;;;;;5061541;28;20039;-80
2023/03/11 03:45:06;;;;;;;4.40;1.10;;;1.70;79.20;;;;;;5078055;28;20039;-80
2023/03/11 03:47:33;;;;;;;3.07;0.70;;;1.70;79.20;;;;;;5077983;28;20047;-80
2023/03/11 03:49:59;;;;;;;4.97;1.00;;;1.80;79.40;;;;;;5078376;28;20028;-80
2023/03/11 03:52:25;;;;;;;2.03;0.70;;;1.90;79.50;;;;;;5061310;28;20036;-81
2023/03/11 03:54:50;;;;;;;3.93;0.83;;;1.80;79.40;;;;;;5066073;28;20031;-80
2023/03/11 03:57:16;;;;;;;4.57;0.87;;;1.80;79.40;;;;;;5077575;28;20478;-80
2023/03/11 03:59:42;;;;;;;3.20;1.00;;;1.90;79.40;;;;;;5077953;28;20078;-81
2023/03/11 04:02:08;;;;;;;3.53;0.97;;;2.00;79.30;;;;;;5045162;28;20078;-80
2023/03/11 04:04:33;;;;;;;4.23;1.00;;;1.70;78.90;;;;;;5077549;28;20044;-80
2023/03/11 04:06:59;;;;;;;1.43;0.70;;;1.80;78.80;;;;;;5092506;28;20032;-80
2023/03/11 04:09:25;;;;;;;3.03;1.03;;;2.30;79.00;;;;;;5100325;28;20081;-80
2023/03/11 04:11:50;;;;;;;2.37;0.77;;;1.80;78.70;;;;;;5086222;28;20035;-81
2023/03/11 04:14:16;;;;;;;4.53;1.03;;;1.80;78.70;;;;;;5044791;28;20143;-81
2023/03/11 04:16:42;;;;;;;1.23;0.73;;;1.70;78.70;;;;;;5094514;28;20096;-80
2023/03/11 04:19:08;;;;;;;3.50;1.00;;;1.80;78.80;;;;;;5059795;28;20094;-80
2023/03/11 04:21:34;;;;;;;2.30;0.80;;;1.90;78.90;;;;;;5040735;28;20040;-80
2023/03/11 04:24:00;;;;;;;6.50;0.90;;;1.80;78.90;;;;;;5075278;28;20055;-80
2023/03/11 04:26:27;;;;;;;1.17;0.63;;;1.80;78.90;;;;;;5080974;28;20479;-80
2023/03/11 04:28:53;;;;;;;3.47;0.80;;;1.70;78.80;;;;;;5059638;28;20032;-80
2023/03/11 04:31:19;;;;;;;6.23;1.07;;;2.20;79.10;;;;;;5080899;28;20043;-80
2023/03/11 04:33:44;;;;;;;3.90;0.80;;;2.00;79.00;;;;;;5081451;28;20407;-80
2023/03/11 04:36:11;;;;;;;2.57;0.90;;;2.40;79.20;;;;;;5064550;28;20063;-81
2023/03/11 04:38:37;;;;;;;3.80;0.80;;;1.80;78.80;;;;;;5064847;28;20044;-80
2023/03/11 04:41:04;;;;;;;1.53;1.00;;;1.70;78.70;;;;;;5061574;28;20475;-81
2023/03/11 04:43:31;;;;;;;2.23;0.63;;;1.80;78.60;;;;;;5098043;28;20475;-80
2023/03/11 04:45:57;;;;;;;2.20;0.80;;;1.90;78.60;;;;;;5097929;28;20112;-80
2023/03/11 04:48:23;;;;;;;3.70;0.90;;;1.70;78.30;;;;;;5064159;28;20471;-80
2023/03/11 04:50:49;;;;;;;1.13;0.60;;;1.70;78.70;;;;;;5064302;28;20050;-80
2023/03/11 04:53:15;;;;;;;3.80;0.77;;;2.10;78.40;;;;;;5102909;28;20031;-80
2023/03/11 04:55:40;;;;;;;2.93;0.70;;;1.90;78.10;;;;;;5084510;28;20063;-80
2023/03/11 04:58:06;;;;;;;3.17;0.80;;;2.30;78.20;;;;;;5091714;28;20039;-80
2023/03/11 05:00:32;;;;;;;2.73;0.67;;;2.10;78.00;;;;;;5081091;28;20521;-80
2023/03/11 05:02:57;;;;;;;3.00;0.77;;;1.90;77.80;;;;;;5047985;28;20044;-80
2023/03/11 05:05:23;;;;;;;3.23;1.10;;;1.60;77.60;;;;;;5061280;28;20123;-80
2023/03/11 05:07:49;;;;;;;2.37;0.70;;;1.60;77.50;;;;;;5043716;28;20168;-80
2023/03/11 05:10:21;;;;;;;3.53;0.87;;;2.10;77.90;;;;;;5076670;28;20063;-80
2023/03/11 05:12:48;;;;;;;3.60;0.80;;;1.60;77.50;;;;;;5080831;28;20036;-80
2023/03/11 05:15:14;;;;;;;2.70;0.60;;;1.60;77.50;;;;;;5097323;28;20042;-80
2023/03/11 05:17:39;;;;;;;3.53;0.83;;;1.90;77.70;;;;;;5090562;28;20036;-80
2023/03/11 05:20:06;;;;;;;1.60;0.70;;;1.50;77.40;;;;;;5080385;28;20051;-80
2023/03/11 05:22:33;;;;;;;2.43;0.90;;;1.60;77.40;;;;;;5099906;28;20521;-80
2023/03/11 05:24:59;;;;;;;4.93;0.80;;;1.80;77.50;;;;;;5079838;28;20052;-80
2023/03/11 05:27:24;;;;;;;1.67;0.63;;;1.50;77.20;;;;;;5082352;28;20051;-80
2023/03/11 05:29:51;;;;;;;2.00;0.60;;;1.50;77.10;;;;;;5080289;28;20050;-80
2023/03/11 05:32:18;;;;;;;4.20;1.10;;;1.80;77.40;;;;;;5080729;28;20078;-80
2023/03/11 05:34:44;;;;;;;1.90;0.87;;;1.50;77.20;;;;;;5063759;28;20043;-79
2023/03/11 05:37:10;;;;;;;1.83;0.70;;;1.70;77.30;;;;;;5079895;28;20071;-80
2023/03/11 05:39:36;;;;;;;2.63;0.80;;;1.50;77.20;;;;;;5080490;28;20086;-80
2023/03/11 05:42:03;;;;;;;2.63;0.43;;;1.50;77.30;;;;;;5063508;28;20042;-80
2023/03/11 05:44:29;;;;;;;0.87;0.60;;;1.40;77.30;;;;;;5079727;28;20067;-80
2023/03/11 05:46:55;;;;;;;3.93;0.80;;;2.10;77.80;;;;;;5063467;28;20119;-79
2023/03/11 05:49:21;;;;;;;1.90;0.60;;;1.40;77.40;;;;;;5080260;28;20163;-80
2023/03/11 05:51:48;;;;;;;1.50;0.70;;;1.40;77.50;;;;;;5074242;28;20046;-80
2023/03/11 05:54:14;;;;;;;3.23;0.70;;;1.50;77.60;;;;;;5080292;28;20040;-80
2023/03/11 05:56:44;;;;;;;3.10;0.77;;;1.40;77.60;;;;;;5043356;28;20101;-80
2023/03/11 05:59:12;;;;;;;1.87;0.60;;;1.40;77.70;;;;;;5076501;28;20039;-79
2023/03/11 06:01:38;;;;;;;2.67;0.47;;;1.80;78.00;;;;;;5096479;28;20047;-79
2023/03/11 06:04:04;;;;;;;3.33;0.80;;;1.70;77.90;;;;;;5060955;28;20093;-79
2023/03/11 06:06:30;;;;;;;3.67;0.40;;;1.60;77.90;;;;;;5061946;28;20440;-80
2023/03/11 06:08:56;;;;;;;3.40;0.80;;;1.40;77.70;;;;;;5063160;28;20036;-79
2023/03/11 06:11:26;;;;;;;2.20;0.63;;;1.40;77.70;;;;;;5095916;28;20027;-78
2023/03/11 06:13:55;;;;;;;2.47;0.67;;;1.70;77.90;;;;;;5080847;28;20031;-79
2023/03/11 06:16:23;;;;;;;1.77;0.80;;;1.40;77.60;;;;;;5059801;28;20645;-79
2023/03/11 06:18:49;;;;;;;2.50;0.70;;;1.40;77.60;;;;;;5095780;28;20036;-79
2023/03/11 06:21:21;;;;;;;4.37;0.80;;;1.60;77.60;;;;;;5079343;28;20046;-79
2023/03/11 06:23:47;;;;;;;4.43;1.67;;;1.50;77.40;;;;;;5079008;28;20048;-79
2023/03/11 06:26:16;;;;;;;3.37;0.70;;;2.00;78.00;;;;;;5060380;28;20040;-79
2023/03/11 06:28:45;;;;;;;2.27;0.70;;;1.60;77.30;;;;;;5096315;28;20071;-79
2023/03/11 06:31:24;;;;;;;2.83;0.60;;;2.00;77.40;;;;;;5096234;28;20379;-79
2023/03/11 06:33:50;;;;;;;4.50;0.70;;;1.40;77.00;;;;;;5079097;28;20501;-79
2023/03/11 06:36:18;;;;;;;1.93;0.67;;;1.40;77.00;;;;;;5053471;28;20032;-78
2023/03/11 06:38:45;;;;;;;2.23;0.90;;;1.40;77.00;;;;;;5097948;28;20078;-79
2023/03/11 06:41:11;;;;;;;1.90;0.90;;;1.30;77.30;;;;;;5061126;28;20051;-78
2023/03/11 06:43:37;;;;;;;2.60;0.90;;;1.40;77.00;;;;;;5078826;28;21847;-79
2023/03/11 06:46:20;;;;;;;1.17;0.70;;;1.80;77.20;;;;;;5062059;28;20134;-79
2023/03/11 06:48:46;;;;;;;3.43;0.87;;;1.70;77.10;;;;;;5077600;28;20043;-78
2023/03/11 06:51:12;;;;;;;2.87;0.77;;;1.40;76.90;;;;;;5086988;28;20057;-79
2023/03/11 06:53:38;;;;;;;2.77;0.87;;;1.90;77.20;;;;;;5090208;28;20032;-79
2023/03/11 06:56:08;;;;;;;1.63;0.67;;;1.40;76.90;;;;;;5110343;28;20514;-79
2023/03/11 06:58:36;;;;;;;2.63;1.30;;;1.40;76.90;;;;;;5078884;28;20050;-79
2023/03/11 07:01:13;;;;;;;2.27;1.17;;;2.00;77.30;;;;;;5078628;28;20036;-78
2023/03/11 07:03:39;;;;;;;3.23;1.00;;;1.90;77.20;;;;;;5068584;28;20038;-79
2023/03/11 07:06:05;;;;;;;3.40;1.00;;;1.40;77.30;;;;;;5078474;28;20388;-79
2023/03/11 07:08:31;;;;;;;5.00;1.10;;;1.40;76.90;;;;;;5043426;28;20505;-80
2023/03/11 07:11:14;;;;;;;3.33;1.30;;;1.50;77.00;;;;;;5061651;28;20040;-79
2023/03/11 07:13:40;;;;;;;4.07;1.03;;;1.40;77.00;;;;;;5078447;28;20522;-79
2023/03/11 07:16:14;;;;;;;2.33;0.97;;;1.90;77.30;;;;;;5074878;28;20072;-79
2023/03/11 07:18:41;;;;;;;3.97;0.90;;;1.40;77.00;;;;;;5078303;28;20070;-79
2023/03/11 07:21:07;;;;;;;4.80;1.00;;;1.40;77.00;;;;;;5044909;28;20035;-79
2023/03/11 07:23:34;;;;;;;1.97;0.67;;;1.50;77.00;;;;;;5094829;28;20059;-78
2023/03/11 07:26:00;;;;;;;3.97;1.00;;;1.60;77.10;;;;;;5061370;28;20046;-78
2023/03/11 07:28:27;;;;;;;5.37;1.00;;;1.50;77.10;;;;;;5058515;28;20043;-79
2023/03/11 07:30:53;;;;;;;3.07;1.07;;;1.50;77.30;;;;;;5077859;28;20071;-79
2023/03/11 07:33:22;;;;;;;6.23;1.30;;;1.70;77.70;;;;;;5077940;28;20036;-79
2023/03/11 07:35:49;;;;;;;5.67;1.10;;;1.60;77.80;;;;;;5077860;28;20093;-79
2023/03/11 07:38:16;;;;;;;4.40;1.87;;;1.70;77.80;;;;;;5078299;28;20387;-79
2023/03/11 07:40:42;;;;;;;4.50;1.27;;;1.70;77.80;;;;;;5090029;28;20035;-80
2023/03/11 07:43:09;;;;;;;2.57;0.93;;;1.80;77.70;;;;;;5078047;28;20494;-80
2023/03/11 07:45:34;;;;;;;4.03;1.13;;;2.50;78.50;;;;;;5094552;28;20092;-80
2023/03/11 07:48:00;;;;;;;3.97;1.27;;;1.90;77.60;;;;;;5077865;28;20043;-80
2023/03/11 07:50:26;;;;;;;3.63;1.40;;;2.50;77.90;;;;;;5060296;28;20634;-79
2023/03/11 07:52:52;;;;;;;4.27;1.47;;;2.10;77.50;;;;;;5061022;28;20115;-80
2023/03/11 07:55:17;;;;;;;5.10;1.33;;;2.20;77.50;;;;;;5060880;28;20044;-80
2023/03/11 07:57:47;;;;;;;3.37;1.53;;;2.20;77.40;;;;;;5094344;28;20044;-79
2023/03/11 08:00:13;;;;;;;3.43;1.10;;;2.70;77.60;;;;;;5061113;28;20490;-80
2023/03/11 08:02:39;;;;;;;4.83;1.03;;;2.40;77.40;;;;;;5043978;28;20054;-80
2023/03/11 08:05:05;;;;;;;6.10;1.30;;;2.50;77.40;;;;;;5045763;28;20181;-80
2023/03/11 08:07:31;;;;;;;5.23;1.13;;;2.60;77.30;;;;;;5096409;28;20044;-81
2023/03/11 08:09:57;;;;;;;4.40;1.23;;;2.70;77.20;;;;;;5066745;28;20136;-81
2023/03/11 08:12:23;;;;;;;1.90;1.00;;;2.90;77.20;;;;;;5081843;28;20083;-81
2023/03/11 08:14:49;;;;;;;2.20;0.83;;;2.80;77.10;;;;;;5048462;28;20040;-80
2023/03/11 08:17:14;;;;;;;3.97;1.43;;;2.90;77.30;;;;;;5045712;28;20058;-82
2023/03/11 08:19:40;;;;;;;6.47;1.55;;;3.00;77.60;;;;;;5064959;28;20095;-82
2023/03/11 08:22:06;;;;;;;4.18;1.27;;;3.20;77.80;;;;;;5045334;28;20052;-82
2023/03/11 08:24:32;;;;;;;4.28;1.58;;;3.40;77.70;;;;;;5072266;27;20497;-81
2023/03/11 08:26:58;;;;;;;5.38;1.35;;;4.10;78.30;;;;;;5071617;28;20136;-82
2023/03/11 08:29:23;;;;;;;7.93;2.20;;;4.10;77.70;;;;;;5098888;28;20076;-82
2023/03/11 08:31:49;;;;;;;5.40;1.45;;;4.40;77.00;;;;;;5065536;28;20036;-82
2023/03/11 08:34:15;;;;;;;4.72;1.10;;;4.80;76.30;;;;;;5082004;28;20042;-82
2023/03/11 08:36:41;;;;;;;4.70;1.40;;;5.20;75.10;;;;;;5081964;28;20046;-82
2023/03/11 08:39:07;;;;;;;4.07;0.80;;;5.60;74.00;;;;;;5096158;28;20399;-83
2023/03/11 08:41:33;;;;;;;6.22;1.33;;;6.00;73.10;;;;;;5085128;27;20042;-82
2023/03/11 08:43:59;;;;;;;3.58;1.00;;;6.40;71.70;;;;;;5048629;27;20376;-83
2023/03/11 08:46:28;;;;;;;3.42;0.98;;;6.80;71.20;;;;;;5083914;28;20030;-82
2023/03/11 08:48:54;;;;;;;2.75;1.27;;;7.20;69.20;;;;;;5098661;28;20418;-82
2023/03/11 08:51:21;;;;;;;4.13;1.55;;;7.50;68.90;;;;;;5081741;28;20475;-82
2023/03/11 08:53:47;;;;;;;5.10;0.93;;;7.90;67.80;;;;;;5072462;28;20071;-82
2023/03/11 08:56:12;;;;;;;2.88;1.00;;;8.10;66.30;;;;;;5081076;28;20040;-82
2023/03/11 08:58:38;;;;;;;3.80;1.58;;;8.40;64.20;;;;;;5105716;27;20046;-82
2023/03/11 09:01:05;;;;;;;2.75;1.10;;;8.70;64.50;;;;;;5081153;28;20043;-82
2023/03/11 09:03:34;;;;;;;6.05;1.58;;;8.90;63.50;;;;;;5097939;28;20039;-82
2023/03/11 09:06:00;;;;;;;5.22;1.45;;;9.10;63.10;;;;;;5081082;28;20115;-82
2023/03/11 09:08:27;;;;;;;2.88;1.10;;;9.30;62.40;;;;;;5081401;28;20533;-83
2023/03/11 09:10:52;;;;;;;4.13;1.27;;;9.50;60.70;;;;;;5065056;28;20040;-81
2023/03/11 09:13:18;;;;;;;5.07;1.10;;;9.70;60.90;;;;;;5081760;28;20498;-81
2023/03/11 09:15:44;;;;;;;4.43;1.00;;;9.80;60.20;;;;;;5098065;28;20122;-83
2023/03/11 09:18:12;;;;;;;3.65;1.13;;;9.90;59.70;;;;;;5044603;28;20046;-82
2023/03/11 09:20:39;;;;;;;4.00;1.30;;;10.00;59.30;;;;;;5067902;28;20114;-82
2023/03/11 09:23:05;;;;;;;5.72;1.05;;;10.10;58.70;;;;;;5099526;28;20078;-82
2023/03/11 09:25:31;;;;;;;3.30;1.02;;;10.20;58.00;;;;;;5088998;28;20055;-82
2023/03/11 09:27:56;;;;;;;3.10;1.08;;;10.30;58.30;;;;;;5106918;28;20043;-82
2023/03/11 09:30:22;;;;;;;4.03;1.73;;;10.30;57.90;;;;;;5104680;28;20031;-82
2023/03/11 09:32:48;;;;;;;4.07;1.15;;;10.30;57.40;;;;;;5079653;28;20027;-82
2023/03/11 09:35:14;;;;;;;3.33;1.27;;;10.40;57.30;;;;;;5079956;28;20123;-81
2023/03/11 09:37:40;;;;;;;4.18;0.88;;;10.40;56.70;;;;;;5096466;28;20538;-82
2023/03/11 09:40:06;;;;;;;5.13;1.13;;;10.30;56.80;;;;;;5061335;28;20123;-81
2023/03/11 09:42:54;;;;;;;2.42;1.17;;;10.40;56.40;;;;;;5127830;28;20097;-81
2023/03/11 09:45:23;;;;;;;1.88;0.75;;;10.30;56.10;;;;;;5066359;28;20046;-82
2023/03/11 09:48:19;;;;;;;2.05;0.90;;;10.30;56.30;;;;;;5115787;28;20040;-82
2023/03/11 09:51:07;;;;;;;4.65;1.15;;;10.20;56.60;;;;;;5093377;28;20093;-82
2023/03/11 09:53:43;;;;;;;3.72;0.93;;;10.20;56.60;;;;;;5108235;28;20038;-81
2023/03/11 09:56:27;;;;;;;3.13;1.10;;;10.20;57.10;;;;;;5079119;28;20074;-81
2023/03/11 09:59:20;;;;;;;2.47;1.00;;;10.10;56.60;;;;;;5046174;28;20035;-81
2023/03/11 10:01:49;;;;;;;2.90;1.00;;;10.10;57.10;;;;;;5078590;28;20135;-81
2023/03/11 10:04:20;;;;;;;4.80;1.58;;;10.10;57.60;;;;;;5062476;28;20045;-81
2023/03/11 10:06:47;;;;;;;3.08;0.82;;;10.10;57.20;;;;;;5095891;28;20054;-80
2023/03/11 10:09:36;;;;;;;3.47;1.05;;;10.00;57.50;;;;;;5096373;28;20032;-81
2023/03/11 10:12:11;;;;;;;4.35;1.17;;;10.00;57.10;;;;;;5124073;28;20036;-80
2023/03/11 10:14:58;;;;;;;5.03;1.48;;;10.00;57.20;;;;;;5113881;28;20032;-80
2023/03/11 10:17:45;;;;;;;2.65;0.90;;;9.90;57.20;;;;;;5075590;28;20043;-80
2023/03/11 10:20:38;;;;;;;7.85;1.73;;;9.90;57.70;;;;;;5118183;28;20059;-80
2023/03/11 10:23:28;;;;;;;4.28;1.10;;;9.80;58.00;;;;;;5053611;28;1104238;-80
2023/03/11 10:26:15;;;;;;;5.65;1.10;;;9.80;58.00;;;;;;5087770;28;20526;-80
2023/03/11 10:28:43;;;;;;;2.80;1.25;;;9.70;58.00;;;;;;5096081;28;20395;-80
2023/03/11 10:31:21;;;;;;;3.53;1.13;;;9.60;57.70;;;;;;5096833;28;20084;-80
2023/03/11 10:33:59;;;;;;;2.75;0.93;;;9.50;57.60;;;;;;5080073;28;20040;-80
2023/03/11 10:36:33;;;;;;;3.45;1.02;;;9.40;57.40;;;;;;5096809;28;20046;-80
2023/03/11 10:39:00;;;;;;;4.30;1.00;;;9.30;57.50;;;;;;5079655;28;20083;-80
2023/03/11 10:41:41;;;;;;;5.75;1.38;;;9.20;57.80;;;;;;5079657;28;20433;-80
2023/03/11 10:44:21;;;;;;;4.68;1.00;;;9.10;58.30;;;;;;5079776;28;20044;-80
2023/03/11 10:46:47;;;;;;;2.45;1.10;;;8.90;58.10;;;;;;5079687;28;20059;-80
2023/03/11 10:49:14;;;;;;;2.25;0.85;;;8.90;58.70;;;;;;5096850;28;20483;-80
2023/03/11 10:51:48;;;;;;;3.90;0.85;;;8.80;59.00;;;;;;5096499;28;20046;-80
2023/03/11 10:54:33;;;;;;;4.55;0.90;;;8.70;58.70;;;;;;5079389;28;20038;-80
2023/03/11 10:57:18;;;;;;;5.50;1.23;;;8.60;58.30;;;;;;5130403;27;20043;-81
2023/03/11 10:59:49;;;;;;;5.18;1.10;;;8.50;58.80;;;;;;5079519;28;20517;-80
2023/03/11 11:02:25;;;;;;;2.67;0.88;;;8.40;58.80;;;;;;5079529;28;20039;-80
2023/03/11 11:05:14;;;;;;;5.28;1.17;;;8.40;58.80;;;;;;5114234;27;20129;-82
2023/03/11 11:07:40;;;;;;;4.57;1.05;;;8.30;58.90;;;;;;5084302;27;20050;-81
2023/03/11 11:10:12;;;;;;;5.05;1.10;;;8.20;59.00;;;;;;5099585;27;20095;-81
2023/03/11 11:12:54;;;;;;;3.55;1.02;;;8.10;58.70;;;;;;5099545;27;20494;-81
2023/03/11 11:15:34;;;;;;;3.55;1.00;;;8.00;58.80;;;;;;5099609;27;20047;-81
2023/03/11 11:18:06;;;;;;;4.45;1.05;;;7.90;58.90;;;;;;5098950;28;20043;-82
2023/03/11 11:20:33;;;;;;;4.38;1.25;;;7.80;59.30;;;;;;5079440;28;20043;-81
2023/03/11 11:23:03;;;;;;;3.58;0.93;;;7.80;59.70;;;;;;5093099;27;20039;-81
2023/03/11 11:25:34;;;;;;;5.05;1.25;;;7.80;59.90;;;;;;5099193;27;20057;-80
2023/03/11 11:28:04;;;;;;;5.07;1.00;;;7.70;59.80;;;;;;5114346;27;20043;-80
2023/03/11 11:30:30;;;;;;;6.25;1.15;;;7.70;59.80;;;;;;5079377;28;20039;-80
2023/03/11 11:33:13;;;;;;;5.35;0.65;;;7.70;60.40;;;;;;5078938;28;20039;-80
2023/03/11 11:35:52;;;;;;;5.25;0.85;;;7.60;60.00;;;;;;5099306;28;20042;-80
2023/03/11 11:38:23;;;;;;;5.28;1.27;;;7.60;59.70;;;;;;5100403;28;20122;-80
2023/03/11 11:40:50;;;;;;;2.78;0.88;;;7.60;59.80;;;;;;5079131;28;20039;-81
2023/03/11 11:43:19;;;;;;;4.18;0.95;;;7.60;59.80;;;;;;5078783;28;20054;-81
2023/03/11 11:45:59;;;;;;;4.05;1.05;;;7.50;59.60;;;;;;5078865;28;20044;-81
2023/03/11 11:49:06;;;;;;;7.63;1.40;;;7.50;59.50;;;;;;5078851;28;20035;-80
2023/03/11 11:51:47;;;;;;;4.40;1.02;;;7.50;59.40;;;;;;5095928;28;20740;-80
2023/03/11 11:54:28;;;;;;;4.35;1.00;;;7.50;59.70;;;;;;5078773;28;20036;-81
2023/03/11 11:56:55;;;;;;;2.72;0.70;;;7.40;59.60;;;;;;5095660;28;20436;-80
2023/03/11 11:59:23;;;;;;;2.72;0.90;;;7.40;59.40;;;;;;5086936;28;20077;-80
2023/03/11 12:02:15;;;;;;;5.72;1.38;;;7.40;59.40;;;;;;5096070;28;20040;-81
2023/03/11 12:04:49;;;;;;;3.65;0.70;;;7.40;59.20;;;;;;5056231;28;20051;-80
2023/03/11 12:07:27;;;;;;;1.85;0.60;;;7.40;59.30;;;;;;5103851;28;20138;-80
2023/03/11 12:09:55;;;;;;;5.25;0.85;;;7.30;59.40;;;;;;5100152;28;20032;-80
2023/03/11 12:12:28;;;;;;;3.13;0.75;;;7.30;59.60;;;;;;5109048;28;20036;-79
2023/03/11 12:15:00;;;;;;;6.75;0.80;;;7.30;59.50;;;;;;5102647;28;20031;-80
2023/03/11 12:17:29;;;;;;;5.10;0.85;;;7.30;59.30;;;;;;5123140;28;20047;-80
2023/03/11 12:20:05;;;;;;;2.40;0.50;;;7.30;59.40;;;;;;5083596;28;20122;-80
2023/03/11 12:23:04;;;;;;;4.50;0.60;;;7.30;59.60;;;;;;5114944;28;20074;-79
2023/03/11 12:26:08;;;;;;;4.13;0.60;;;7.30;59.20;;;;;;5093913;28;20091;-79
2023/03/11 12:28:43;;;;;;;1.92;0.80;;;7.30;59.40;;;;;;5089864;28;20043;-79
2023/03/11 12:31:11;;;;;;;6.72;0.70;;;7.30;59.20;;;;;;5093679;28;20546;-79
2023/03/11 12:33:43;;;;;;;2.67;0.60;;;7.30;59.20;;;;;;5085967;28;20043;-79
2023/03/11 12:36:27;;;;;;;6.70;1.02;;;7.30;58.40;;;;;;5077353;28;20391;-79
2023/03/11 12:38:53;;;;;;;5.47;1.30;;;7.30;58.20;;;;;;5092284;28;20559;-80
2023/03/11 12:41:40;;;;;;;3.60;0.70;;;7.30;58.40;;;;;;5089504;28;20039;-79
2023/03/11 12:44:28;;;;;;;1.38;0.47;;;7.30;58.60;;;;;;5105255;28;20043;-79
2023/03/11 12:46:57;;;;;;;3.92;0.47;;;7.30;58.90;;;;;;5058094;28;20080;-79
2023/03/11 12:49:35;;;;;;;5.40;0.85;;;7.40;59.20;;;;;;5080106;28;20110;-80
2023/03/11 12:52:09;;;;;;;3.60;0.50;;;7.40;59.40;;;;;;5072656;28;20036;-80
2023/03/11 12:54:36;;;;;;;;;;;7.40;59.00;;;;;;5098795;28;20067;-80
2023/03/11 12:57:20;;;;;;;3.15;0.43;;;7.40;59.40;;;;;;5089628;28;19973;-80
2023/03/11 13:00:00;;;;;;;2.78;0.50;;;7.40;58.60;;;;;;5091114;27;20041;-80
2023/03/11 13:03:00;;;;;;;3.95;0.70;;;7.40;58.20;;;;;;5088578;28;20051;-80
2023/03/11 13:05:53;;;;;;;3.95;0.73;;;7.40;58.00;;;;;;5092177;28;20047;-81
2023/03/11 13:08:23;;;;;;;4.35;0.70;;;7.50;58.20;;;;;;5073753;28;20051;-81
2023/03/11 13:10:53;;;;;;;2.50;0.50;;;7.50;58.60;;;;;;5076542;27;20119;-80